Time;durP1;ratioP1;P1;durP2;ratioP2;P2;SDS_P1;SDS_P2;PMS_P1;PMS_P2;Temp;Humidity;BMP_temperature;BMP_pressure;BME280_temperature;BME280_humidity;BME280_pressure;Samples;Min_cycle;Max_cycle;Signal;HPM_P1;HPM_P2
2022/01/23 00:02:23;;;;;;;43.55;25.85;;;;;;;;;;5027908;28;20052;-72
2022/01/23 00:04:50;;;;;;;49.25;26.83;;;;;;;;;;5002402;28;20418;-72
2022/01/23 00:07:16;;;;;;;47.15;25.77;;;;;;;;;;5014954;28;20053;-72
2022/01/23 00:09:43;;;;;;;45.13;26.70;;;;;;;;;;4994024;28;20052;-72
2022/01/23 00:12:14;;;;;;;45.60;24.75;;;;;;;;;;4998035;28;20055;-71
2022/01/23 00:17:32;;;;;;;47.13;26.00;;;;;;;;;;5029088;28;20049;-72
2022/01/23 00:19:59;;;;;;;49.60;27.05;;;;;;;;;;5007258;28;20064;-71
2022/01/23 00:22:34;;;;;;;51.38;28.63;;;;;;;;;;5024987;28;20326;-72
2022/01/23 00:30:32;;;;;;;52.00;29.40;;;;;;;;;;5010390;28;20046;-72
2022/01/23 00:33:03;;;;;;;49.57;26.73;;;;;;;;;;5038175;28;20513;-72
2022/01/23 00:35:30;;;;;;;57.55;29.45;;;;;;;;;;4999700;28;20045;-72
2022/01/23 00:37:56;;;;;;;52.00;30.50;;;;;;;;;;5014512;28;20136;-72
2022/01/23 00:40:23;;;;;;;50.65;28.48;;;;;;;;;;5002187;28;20628;-72
2022/01/23 00:42:49;;;;;;;54.28;29.13;;;;;;;;;;5016693;28;20057;-72
2022/01/23 00:47:58;;;;;;;49.38;28.02;;;;;;;;;;5015796;28;20548;-72
2022/01/23 00:50:25;;;;;;;55.53;28.25;;;;;;;;;;4996387;28;20501;-72
2022/01/23 00:52:52;;;;;;;50.85;28.15;;;;;;;;;;5009763;28;20057;-73
2022/01/23 00:55:18;;;;;;;52.90;28.45;;;;;;;;;;5001229;28;20068;-72
2022/01/23 00:57:44;;;;;;;49.47;27.90;;;;;;;;;;5025006;28;20447;-72
2022/01/23 01:00:11;;;;;;;52.25;27.60;;;;;;;;;;5011645;28;20045;-72
2022/01/23 01:02:38;;;;;;;50.75;27.90;;;;;;;;;;5023694;28;20069;-72
2022/01/23 01:05:05;;;;;;;45.33;25.52;;;;;;;;;;5009207;28;20046;-69
2022/01/23 01:07:31;;;;;;;54.50;28.58;;;;;;;;;;5019798;28;20541;-69
2022/01/23 01:10:02;;;;;;;48.72;27.95;;;;;;;;;;5020077;28;20052;-68
2022/01/23 01:12:37;;;;;;;51.80;29.13;;;;;;;;;;5018440;28;20438;-68
2022/01/23 01:31:27;;;;;;;53.72;28.60;;;;;;;;;;5010334;28;20076;-68
2022/01/23 01:34:00;;;;;;;51.75;28.15;;;;;;;;;;5012331;28;20381;-69
2022/01/23 01:36:35;;;;;;;55.88;28.40;;;;;;;;;;5018522;28;20473;-69
2022/01/23 01:39:02;;;;;;;64.30;28.65;;;;;;;;;;5015306;28;20119;-68
2022/01/23 01:41:28;;;;;;;46.75;26.45;;;;;;;;;;5018626;28;20054;-73
2022/01/23 01:43:57;;;;;;;49.20;27.58;;;;;;;;;;5017018;28;20174;-70
2022/01/23 01:46:23;;;;;;;55.88;28.67;;;;;;;;;;5004055;28;20053;-71
2022/01/23 01:48:50;;;;;;;50.92;27.48;;;;;;;;;;5022007;28;20121;-71
2022/01/23 01:51:18;;;;;;;52.70;28.20;;;;;;;;;;5009392;28;20140;-72
2022/01/23 01:53:55;;;;;;;50.45;27.08;;;;;;;;;;5022967;28;20060;-72
2022/01/23 01:56:21;;;;;;;47.63;27.40;;;;;;;;;;5009995;28;20065;-72
2022/01/23 02:09:16;;;;;;;48.58;26.80;;;;;;;;;;5011419;28;20049;-71
2022/01/23 02:14:58;;;;;;;51.40;27.48;;;;;;;;;;5010248;28;20562;-73
2022/01/23 02:25:41;;;;;;;57.20;28.77;;;;;;;;;;5013351;28;20076;-70
2022/01/23 02:53:17;;;;;;;50.47;27.13;;;;;;;;;;5011112;28;20052;-71
2022/01/23 02:55:44;;;;;;;49.15;27.45;;;;;;;;;;5008500;28;20068;-71
2022/01/23 02:58:12;;;;;;;53.95;28.25;;;;;;;;;;5017356;28;20049;-71
2022/01/23 03:01:01;;;;;;;56.80;26.80;;;;;;;;;;5013823;28;20049;-71
2022/01/23 03:03:28;;;;;;;52.92;27.85;;;;;;;;;;5013925;28;20087;-71
2022/01/23 03:08:56;;;;;;;;;;;;;;;;;;5008889;28;20041;-72
2022/01/23 03:14:16;;;;;;;50.97;25.95;;;;;;;;;;5012979;28;20475;-71
2022/01/23 03:30:22;;;;;;;54.80;29.13;;;;;;;;;;5013296;28;20053;-71
2022/01/23 03:32:51;;;;;;;52.33;27.02;;;;;;;;;;5015962;28;20065;-71
2022/01/23 03:35:18;;;;;;;50.78;26.45;;;;;;;;;;5009461;28;20045;-71
2022/01/23 03:37:45;;;;;;;57.92;27.90;;;;;;;;;;5011732;28;20049;-71
2022/01/23 03:40:12;;;;;;;52.17;26.45;;;;;;;;;;5011351;28;20482;-71
2022/01/23 03:42:41;;;;;;;49.63;25.98;;;;;;;;;;5016136;28;20060;-70
2022/01/23 03:49:30;;;;;;;54.40;27.73;;;;;;;;;;4994079;28;20774;-70
2022/01/23 03:50:39;;;;;;;52.53;26.52;;;;;;;;;;5015581;28;20045;-71
2022/01/23 03:53:06;;;;;;;49.40;26.02;;;;;;;;;;5009728;28;20049;-71
2022/01/23 03:55:32;;;;;;;53.70;26.83;;;;;;;;;;5034765;28;20053;-70
2022/01/23 03:57:58;;;;;;;55.20;27.52;;;;;;;;;;5009477;28;20050;-70
2022/01/23 04:00:25;;;;;;;50.75;27.25;;;;;;;;;;5025338;28;20103;-70
2022/01/23 04:02:51;;;;;;;47.90;26.52;;;;;;;;;;5016911;28;20053;-70
2022/01/23 04:05:18;;;;;;;47.78;26.52;;;;;;;;;;5008486;28;20056;-71
2022/01/23 04:07:45;;;;;;;47.33;26.10;;;;;;;;;;5001210;28;20525;-70
2022/01/23 04:10:15;;;;;;;53.67;27.10;;;;;;;;;;5013664;28;20502;-70
2022/01/23 04:13:09;;;;;;;48.15;25.95;;;;;;;;;;5022801;28;20045;-70
2022/01/23 04:34:49;;;;;;;45.55;25.58;;;;;;;;;;5008539;28;20455;-71
2022/01/23 04:45:34;;;;;;;48.60;26.40;;;;;;;;;;5011343;28;20053;-70
2022/01/23 05:02:04;;;;;;;49.72;27.23;;;;;;;;;;5015087;28;20363;-70
2022/01/23 05:04:33;;;;;;;52.33;27.35;;;;;;;;;;5019688;28;20046;-70
2022/01/23 05:09:26;;;;;;;50.22;26.85;;;;;;;;;;5027982;28;20056;-70
2022/01/23 05:11:57;;;;;;;52.28;27.02;;;;;;;;;;5016678;28;20060;-70
2022/01/23 05:14:33;;;;;;;53.42;26.83;;;;;;;;;;4986534;28;20053;-70
2022/01/23 05:17:00;;;;;;;55.85;27.08;;;;;;;;;;5020617;28;20045;-70
2022/01/23 05:19:27;;;;;;;52.50;27.35;;;;;;;;;;5009340;28;20068;-71
2022/01/23 05:24:40;;;;;;;52.97;26.40;;;;;;;;;;5002531;28;20146;-70
2022/01/23 05:27:09;;;;;;;51.38;25.73;;;;;;;;;;5019935;28;20041;-69
2022/01/23 05:29:35;;;;;;;54.88;27.33;;;;;;;;;;5019971;28;20060;-69
2022/01/23 05:32:02;;;;;;;54.67;26.35;;;;;;;;;;4995071;28;20049;-70
2022/01/23 05:34:29;;;;;;;50.15;27.65;;;;;;;;;;5004555;28;20490;-70
2022/01/23 05:36:55;;;;;;;57.30;28.42;;;;;;;;;;5006758;28;20255;-70
2022/01/23 05:39:24;;;;;;;55.35;27.75;;;;;;;;;;5007977;28;20045;-70
2022/01/23 05:41:54;;;;;;;47.85;25.55;;;;;;;;;;4995481;28;20060;-69
2022/01/23 05:44:20;;;;;;;45.65;22.85;;;;;;;;;;5020499;28;20058;-70
2022/01/23 05:46:47;;;;;;;45.22;25.02;;;;;;;;;;5018930;28;20053;-70
2022/01/23 05:49:13;;;;;;;49.53;24.80;;;;;;;;;;5008304;28;20366;-72
2022/01/23 05:51:39;;;;;;;48.58;25.15;;;;;;;;;;5011143;28;20398;-70
2022/01/23 05:54:06;;;;;;;51.28;26.65;;;;;;;;;;5013002;28;20749;-70
2022/01/23 05:56:32;;;;;;;52.28;25.98;;;;;;;;;;5015590;28;20101;-70
2022/01/23 05:58:59;;;;;;;50.05;25.95;;;;;;;;;;5018799;28;20371;-70
2022/01/23 06:01:25;;;;;;;48.13;25.58;;;;;;;;;;5015150;28;20561;-69
2022/01/23 06:03:52;;;;;;;45.70;24.77;;;;;;;;;;5017943;28;20049;-69
2022/01/23 06:06:21;;;;;;;46.00;25.38;;;;;;;;;;5005755;28;20057;-70
2022/01/23 06:08:48;;;;;;;48.20;26.52;;;;;;;;;;5023666;28;20057;-69
2022/01/23 06:11:15;;;;;;;44.13;23.33;;;;;;;;;;5009013;28;20101;-70
2022/01/23 06:13:42;;;;;;;47.92;25.70;;;;;;;;;;5021667;28;20049;-70
2022/01/23 06:16:08;;;;;;;46.85;23.25;;;;;;;;;;5017847;28;20041;-71
2022/01/23 06:18:38;;;;;;;46.75;24.75;;;;;;;;;;5005027;28;20692;-71
2022/01/23 06:21:04;;;;;;;45.30;24.33;;;;;;;;;;5024523;28;20054;-70
2022/01/23 06:23:31;;;;;;;44.55;24.40;;;;;;;;;;5015311;28;20052;-70
2022/01/23 06:25:58;;;;;;;44.10;24.70;;;;;;;;;;5017299;28;20057;-70
2022/01/23 06:28:43;;;;;;;47.30;24.20;;;;;;;;;;5016357;28;20610;-70
2022/01/23 06:31:10;;;;;;;42.38;24.08;;;;;;;;;;5011687;28;20051;-70
2022/01/23 06:33:37;;;;;;;50.78;25.27;;;;;;;;;;5012124;28;20045;-70
2022/01/23 06:36:06;;;;;;;56.83;26.15;;;;;;;;;;5029980;28;20490;-70
2022/01/23 06:38:33;;;;;;;46.80;25.00;;;;;;;;;;5020549;28;20654;-70
2022/01/23 06:40:59;;;;;;;46.63;24.88;;;;;;;;;;5013038;28;20053;-70
2022/01/23 06:43:25;;;;;;;46.90;24.52;;;;;;;;;;5003042;28;20329;-70
2022/01/23 06:45:52;;;;;;;47.97;25.75;;;;;;;;;;5009015;28;21154;-69
2022/01/23 06:48:18;;;;;;;49.03;25.55;;;;;;;;;;5015816;28;20053;-69
2022/01/23 06:50:44;;;;;;;45.00;24.85;;;;;;;;;;5022878;28;20068;-70
2022/01/23 06:53:11;;;;;;;47.40;24.40;;;;;;;;;;5008325;28;20045;-69
2022/01/23 06:55:37;;;;;;;48.63;25.52;;;;;;;;;;5025313;28;20429;-69
2022/01/23 06:58:03;;;;;;;48.58;26.55;;;;;;;;;;5003841;28;20050;-69
2022/01/23 07:00:32;;;;;;;50.58;24.50;;;;;;;;;;5018563;28;20767;-69
2022/01/23 07:02:59;;;;;;;49.13;25.25;;;;;;;;;;5008516;28;20365;-69
2022/01/23 07:05:26;;;;;;;45.33;24.70;;;;;;;;;;5020252;28;20155;-69
2022/01/23 07:07:53;;;;;;;46.65;25.40;;;;;;;;;;5022311;28;20173;-69
2022/01/23 07:10:21;;;;;;;49.30;26.00;;;;;;;;;;5012551;28;20050;-70
2022/01/23 07:12:47;;;;;;;50.83;25.25;;;;;;;;;;5013463;28;20046;-70
2022/01/23 07:15:14;;;;;;;44.22;25.42;;;;;;;;;;5009776;28;20048;-70
2022/01/23 07:17:41;;;;;;;45.97;24.10;;;;;;;;;;5017006;28;20135;-70
2022/01/23 07:20:07;;;;;;;44.28;24.88;;;;;;;;;;5012788;28;20516;-70
2022/01/23 07:22:34;;;;;;;44.38;24.20;;;;;;;;;;5023658;28;20482;-70
2022/01/23 07:25:02;;;;;;;47.53;24.33;;;;;;;;;;5014803;28;20063;-70
2022/01/23 07:27:33;;;;;;;49.60;25.77;;;;;;;;;;5004564;28;20049;-70
2022/01/23 07:29:59;;;;;;;45.20;24.85;;;;;;;;;;5021523;28;20054;-70
2022/01/23 07:32:26;;;;;;;47.17;24.90;;;;;;;;;;5028526;28;20052;-70
2022/01/23 07:34:52;;;;;;;47.15;25.08;;;;;;;;;;5024396;28;20049;-70
2022/01/23 07:37:18;;;;;;;47.28;26.15;;;;;;;;;;5017610;28;20613;-70
2022/01/23 07:39:44;;;;;;;46.53;24.83;;;;;;;;;;5018203;28;20053;-70
2022/01/23 07:42:11;;;;;;;51.72;24.88;;;;;;;;;;5022753;28;20057;-70
2022/01/23 07:44:37;;;;;;;42.67;23.17;;;;;;;;;;5001205;28;20050;-70
2022/01/23 07:47:04;;;;;;;44.70;24.45;;;;;;;;;;5024392;28;20091;-70
2022/01/23 07:49:30;;;;;;;45.30;24.70;;;;;;;;;;5013519;28;20049;-70
2022/01/23 07:51:57;;;;;;;46.03;25.88;;;;;;;;;;5026333;28;20050;-70
2022/01/23 07:54:23;;;;;;;50.00;25.83;;;;;;;;;;5016601;28;20045;-70
2022/01/23 07:56:49;;;;;;;50.63;26.00;;;;;;;;;;4999253;28;20053;-70
2022/01/23 07:59:16;;;;;;;49.60;25.08;;;;;;;;;;5020473;28;20046;-69
2022/01/23 08:01:42;;;;;;;45.72;24.00;;;;;;;;;;5019883;28;20053;-70
2022/01/23 08:04:09;;;;;;;41.35;22.88;;;;;;;;;;5021673;28;20049;-70
2022/01/23 08:06:43;;;;;;;42.35;23.63;;;;;;;;;;5016205;28;20057;-70
2022/01/23 08:09:10;;;;;;;44.38;24.15;;;;;;;;;;5016134;28;20372;-70
2022/01/23 08:11:36;;;;;;;46.50;23.98;;;;;;;;;;5025472;28;20053;-71
2022/01/23 08:14:03;;;;;;;40.80;22.70;;;;;;;;;;5019120;28;20426;-70
2022/01/23 08:16:29;;;;;;;42.10;23.20;;;;;;;;;;5042710;28;20609;-70
2022/01/23 08:18:56;;;;;;;42.72;23.95;;;;;;;;;;5012139;28;20045;-70
2022/01/23 08:21:22;;;;;;;39.97;22.17;;;;;;;;;;5021789;28;20045;-72
2022/01/23 08:23:52;;;;;;;42.33;22.50;;;;;;;;;;4991338;28;20154;-71
2022/01/23 08:26:20;;;;;;;40.95;20.55;;;;;;;;;;5026849;28;20415;-72
2022/01/23 08:28:46;;;;;;;38.92;19.85;;;;;;;;;;5022650;28;20072;-71
2022/01/23 08:31:12;;;;;;;40.80;21.52;;;;;;;;;;5018881;28;20056;-71
2022/01/23 08:33:39;;;;;;;37.80;20.55;;;;;;;;;;5028989;28;20056;-71
2022/01/23 08:36:05;;;;;;;38.72;21.48;;;;;;;;;;4998132;28;20300;-71
2022/01/23 08:38:31;;;;;;;39.60;20.95;;;;;;;;;;5015577;28;20263;-71
2022/01/23 08:43:43;;;;;;;37.38;20.30;;;;;;;;;;5011511;28;20053;-71
2022/01/23 08:46:09;;;;;;;39.92;20.83;;;;;;;;;;5021419;28;20053;-71
2022/01/23 08:48:36;;;;;;;38.47;20.45;;;;;;;;;;5009611;28;20068;-71
2022/01/23 08:51:02;;;;;;;36.97;20.02;;;;;;;;;;4998535;28;20143;-71
2022/01/23 08:53:29;;;;;;;38.10;20.70;;;;;;;;;;4995890;28;20064;-71
2022/01/23 08:55:55;;;;;;;38.50;19.60;;;;;;;;;;5019535;28;20056;-71
2022/01/23 08:58:21;;;;;;;36.17;20.90;;;;;;;;;;5014821;28;20064;-71
2022/01/23 09:00:48;;;;;;;37.67;19.98;;;;;;;;;;5018804;28;20298;-71
2022/01/23 09:03:15;;;;;;;39.05;21.00;;;;;;;;;;4999693;28;20521;-70
2022/01/23 09:05:41;;;;;;;36.10;19.45;;;;;;;;;;5013588;28;20049;-70
2022/01/23 09:08:07;;;;;;;36.50;20.42;;;;;;;;;;5021547;28;20056;-71
2022/01/23 09:10:41;;;;;;;38.95;20.08;;;;;;;;;;5012539;28;20396;-71
2022/01/23 09:13:31;;;;;;;40.60;20.88;;;;;;;;;;5028746;28;20080;-71
2022/01/23 09:15:57;;;;;;;35.70;20.58;;;;;;;;;;5011240;28;20040;-70
2022/01/23 09:18:23;;;;;;;40.50;22.42;;;;;;;;;;5020759;28;20216;-70
2022/01/23 09:20:50;;;;;;;41.83;21.60;;;;;;;;;;5022377;28;20200;-70
2022/01/23 09:23:17;;;;;;;43.25;22.95;;;;;;;;;;5024678;28;20051;-70
2022/01/23 09:25:43;;;;;;;38.58;21.48;;;;;;;;;;5016086;28;20346;-70
2022/01/23 09:28:13;;;;;;;39.97;22.17;;;;;;;;;;5010484;28;20477;-70
2022/01/23 09:30:43;;;;;;;38.72;20.70;;;;;;;;;;5018820;28;20168;-70
2022/01/23 09:33:09;;;;;;;39.20;21.08;;;;;;;;;;5016123;28;20064;-70
2022/01/23 09:35:35;;;;;;;37.17;21.42;;;;;;;;;;5019154;28;20061;-70
2022/01/23 09:38:02;;;;;;;35.58;20.52;;;;;;;;;;5023930;28;20072;-70
2022/01/23 09:40:28;;;;;;;37.85;20.83;;;;;;;;;;5005425;28;20057;-70
2022/01/23 09:43:22;;;;;;;39.90;22.65;;;;;;;;;;5019723;28;20084;-70
2022/01/23 09:45:49;;;;;;;39.03;21.10;;;;;;;;;;5001358;28;20068;-70
2022/01/23 09:48:16;;;;;;;38.25;20.63;;;;;;;;;;5022226;28;20212;-71
2022/01/23 09:50:44;;;;;;;38.15;20.65;;;;;;;;;;5009238;28;20052;-71
2022/01/23 09:53:11;;;;;;;39.05;21.15;;;;;;;;;;5022081;28;20289;-71
2022/01/23 09:55:39;;;;;;;37.13;19.90;;;;;;;;;;5019114;28;20055;-71
2022/01/23 09:58:06;;;;;;;36.75;19.10;;;;;;;;;;5022209;28;20350;-71
2022/01/23 10:00:33;;;;;;;29.70;17.25;;;;;;;;;;5017775;28;20052;-71
2022/01/23 10:02:59;;;;;;;30.45;18.45;;;;;;;;;;5013448;28;20049;-71
2022/01/23 10:05:26;;;;;;;34.05;18.50;;;;;;;;;;5016921;28;20547;-71
2022/01/23 10:07:53;;;;;;;29.85;17.58;;;;;;;;;;5009330;28;20060;-71
2022/01/23 10:10:21;;;;;;;30.08;16.90;;;;;;;;;;5013130;28;20549;-71
2022/01/23 10:12:51;;;;;;;28.90;16.75;;;;;;;;;;5012710;28;20491;-71
2022/01/23 10:15:18;;;;;;;36.47;18.13;;;;;;;;;;5018641;28;20179;-71
2022/01/23 10:17:45;;;;;;;29.50;16.92;;;;;;;;;;5020740;28;20072;-71
2022/01/23 10:20:12;;;;;;;29.10;16.08;;;;;;;;;;4995444;28;20045;-71
2022/01/23 10:22:41;;;;;;;26.02;15.80;;;;;;;;;;5032350;28;20760;-71
2022/01/23 10:25:09;;;;;;;27.35;16.08;;;;;;;;;;4980220;28;20055;-70
2022/01/23 10:27:55;;;;;;;21.83;12.30;;;;;;;;;;5021304;28;20049;-70
2022/01/23 10:30:23;;;;;;;21.52;13.07;;;;;;;;;;4999696;28;20695;-70
2022/01/23 10:32:57;;;;;;;22.37;12.37;;;;;;;;;;5021791;28;20061;-70
2022/01/23 10:35:24;;;;;;;18.80;11.55;;;;;;;;;;4990110;28;20788;-70
2022/01/23 10:37:52;;;;;;;26.08;14.40;;;;;;;;;;5005972;28;20041;-71
2022/01/23 10:40:22;;;;;;;22.95;13.40;;;;;;;;;;5032792;28;20052;-71
2022/01/23 10:51:11;;;;;;;21.08;12.38;;;;;;;;;;5010190;28;20060;-70
2022/01/23 10:54:00;;;;;;;24.50;15.00;;;;;;;;;;5011051;28;20093;-71
2022/01/23 10:56:30;;;;;;;23.60;13.90;;;;;;;;;;5017185;28;20036;-70
2022/01/23 10:59:01;;;;;;;23.27;12.90;;;;;;;;;;5018388;28;20065;-71
2022/01/23 11:01:28;;;;;;;21.50;12.75;;;;;;;;;;5015945;28;20332;-71
2022/01/23 11:04:11;;;;;;;21.65;12.73;;;;;;;;;;5015816;28;20352;-70
2022/01/23 11:07:01;;;;;;;21.73;13.13;;;;;;;;;;4998801;28;20063;-70
2022/01/23 11:09:31;;;;;;;20.17;12.20;;;;;;;;;;5020000;28;20112;-70
2022/01/23 11:12:03;;;;;;;22.88;13.38;;;;;;;;;;5006445;28;20711;-71
2022/01/23 11:17:22;;;;;;;20.15;12.27;;;;;;;;;;5007052;28;20057;-72
2022/01/23 11:19:50;;;;;;;23.83;13.60;;;;;;;;;;5017385;28;20135;-69
2022/01/23 11:22:21;;;;;;;21.08;12.85;;;;;;;;;;5009746;28;20056;-69
2022/01/23 11:24:48;;;;;;;23.30;13.15;;;;;;;;;;5021420;28;20057;-69
2022/01/23 11:27:16;;;;;;;23.77;13.38;;;;;;;;;;5017095;28;20589;-70
2022/01/23 11:29:53;;;;;;;23.05;13.52;;;;;;;;;;5011613;28;20140;-70
2022/01/23 11:32:20;;;;;;;23.98;13.88;;;;;;;;;;5009033;28;20053;-70
2022/01/23 11:34:47;;;;;;;26.08;14.25;;;;;;;;;;5011824;28;20049;-70
2022/01/23 11:37:15;;;;;;;23.38;13.73;;;;;;;;;;5018517;28;20045;-70
2022/01/23 11:39:48;;;;;;;25.37;13.60;;;;;;;;;;5025121;28;20045;-70
2022/01/23 11:53:46;;;;;;;10.95;5.85;;;;;;;;;;5015431;28;20044;-71
2022/01/23 11:56:26;;;;;;;13.60;7.35;;;;;;;;;;5018492;28;20091;-71
2022/01/23 11:58:54;;;;;;;17.92;8.35;;;;;;;;;;5005696;28;20054;-70
2022/01/23 12:01:25;;;;;;;3.20;1.70;;;;;;;;;;5017978;28;20061;-70
2022/01/23 12:04:07;;;;;;;1.33;0.90;;;;;;;;;;5005470;28;20314;-69
2022/01/23 12:06:38;;;;;;;2.10;0.88;;;;;;;;;;5021663;28;20525;-70
2022/01/23 12:09:11;;;;;;;0.63;0.60;;;;;;;;;;5009073;28;20577;-69
2022/01/23 12:11:41;;;;;;;1.58;0.90;;;;;;;;;;5015799;28;20042;-70
2022/01/23 12:17:01;;;;;;;0.90;0.60;;;;;;;;;;5029593;28;20090;-71
2022/01/23 12:19:28;;;;;;;1.77;0.60;;;;;;;;;;5023860;28;20041;-71
2022/01/23 12:21:56;;;;;;;1.65;0.68;;;;;;;;;;5022507;28;20049;-71
2022/01/23 12:24:24;;;;;;;0.95;0.75;;;;;;;;;;5026939;28;20243;-72
2022/01/23 12:26:52;;;;;;;1.00;0.55;;;;;;;;;;5010379;28;20060;-72
2022/01/23 12:29:18;;;;;;;1.30;0.80;;;;;;;;;;5014478;28;20049;-72
2022/01/23 12:32:18;;;;;;;2.05;0.80;;;;;;;;;;5016125;28;20168;-71
2022/01/23 12:34:45;;;;;;;2.17;1.00;;;;;;;;;;5003290;28;20060;-71
2022/01/23 12:37:12;;;;;;;1.90;1.30;;;;;;;;;;5016287;28;20505;-71
2022/01/23 12:39:38;;;;;;;1.90;1.30;;;;;;;;;;5019769;28;20052;-70
2022/01/23 12:42:05;;;;;;;4.47;1.30;;;;;;;;;;5022158;28;20049;-70
2022/01/23 12:44:33;;;;;;;2.45;1.20;;;;;;;;;;5022175;28;20053;-70
2022/01/23 12:47:04;;;;;;;0.95;0.77;;;;;;;;;;5023540;28;20068;-70
2022/01/23 12:49:34;;;;;;;3.10;1.38;;;;;;;;;;5024454;28;20083;-70
2022/01/23 12:52:10;;;;;;;2.95;1.33;;;;;;;;;;5025790;28;20048;-71
2022/01/23 12:54:52;;;;;;;3.15;1.52;;;;;;;;;;5013631;28;20060;-71
2022/01/23 12:57:34;;;;;;;5.95;1.85;;;;;;;;;;5037282;28;20049;-71
2022/01/23 13:00:03;;;;;;;2.80;1.48;;;;;;;;;;5021545;28;20056;-70
2022/01/23 13:02:37;;;;;;;4.05;1.50;;;;;;;;;;5006610;28;20423;-71
2022/01/23 13:05:04;;;;;;;2.53;1.63;;;;;;;;;;5008500;28;20046;-70
2022/01/23 13:07:39;;;;;;;4.40;1.90;;;;;;;;;;5009316;28;20049;-71
2022/01/23 13:12:54;;;;;;;6.10;2.72;;;;;;;;;;5012592;28;20084;-71
2022/01/23 13:31:58;;;;;;;0.82;0.70;;;;;;;;;;5020279;28;20054;-71
2022/01/23 13:34:26;;;;;;;1.15;0.70;;;;;;;;;;5021225;28;20053;-71
2022/01/23 13:36:54;;;;;;;1.35;0.68;;;;;;;;;;5003610;28;20046;-71
2022/01/23 13:39:21;;;;;;;2.22;0.70;;;;;;;;;;5021701;28;20498;-71
2022/01/23 13:42:19;;;;;;;1.35;0.60;;;;;;;;;;4993136;28;20119;-71
2022/01/23 13:53:08;;;;;;;1.40;0.50;;;;;;;;;;5009453;28;20061;-71
2022/01/23 13:58:52;;;;;;;2.13;0.90;;;;;;;;;;5012087;28;20056;-71
2022/01/23 14:01:34;;;;;;;1.40;0.80;;;;;;;;;;5007121;28;20156;-71
2022/01/23 14:04:01;;;;;;;3.63;1.80;;;;;;;;;;5008242;28;20308;-71
2022/01/23 14:06:27;;;;;;;3.80;2.03;;;;;;;;;;5013231;28;20694;-71
2022/01/23 14:09:02;;;;;;;3.83;1.90;;;;;;;;;;5001896;28;20046;-71
2022/01/23 14:11:29;;;;;;;3.70;2.00;;;;;;;;;;5024896;28;20072;-71
2022/01/23 14:13:55;;;;;;;4.68;1.95;;;;;;;;;;5004013;28;20060;-71
2022/01/23 14:16:25;;;;;;;4.70;2.20;;;;;;;;;;5004944;28;20053;-71
2022/01/23 14:18:52;;;;;;;5.20;2.83;;;;;;;;;;5010629;28;20911;-71
2022/01/23 14:21:22;;;;;;;6.40;3.22;;;;;;;;;;5018466;28;20675;-71
2022/01/23 14:23:48;;;;;;;;;;;;;;;;;;5020023;28;20053;-71
2022/01/23 14:26:15;;;;;;;10.32;5.88;;;;;;;;;;5019334;28;19931;-71
2022/01/23 14:28:45;;;;;;;10.52;4.88;;;;;;;;;;5012846;28;20053;-71
2022/01/23 14:31:18;;;;;;;8.45;4.47;;;;;;;;;;5014859;28;20053;-71
2022/01/23 14:33:48;;;;;;;6.28;3.63;;;;;;;;;;5004796;28;20055;-71
2022/01/23 14:36:37;;;;;;;5.30;3.30;;;;;;;;;;5018420;28;20188;-71
2022/01/23 14:39:09;;;;;;;6.32;3.67;;;;;;;;;;4994628;28;20044;-71
2022/01/23 14:41:36;;;;;;;8.45;4.97;;;;;;;;;;5018041;28;20051;-71
2022/01/23 14:44:14;;;;;;;11.88;5.45;;;;;;;;;;5015543;28;20049;-71
2022/01/23 14:46:41;;;;;;;7.93;4.50;;;;;;;;;;4993450;28;20832;-71
2022/01/23 14:49:10;;;;;;;7.57;3.92;;;;;;;;;;5017974;28;20135;-71
2022/01/23 14:51:38;;;;;;;8.60;4.07;;;;;;;;;;5012392;28;20482;-71
2022/01/23 14:54:04;;;;;;;8.65;4.10;;;;;;;;;;5018883;28;20474;-71
2022/01/23 14:56:32;;;;;;;5.93;3.85;;;;;;;;;;5008626;28;20054;-71
2022/01/23 14:58:59;;;;;;;7.30;3.97;;;;;;;;;;5011691;28;20049;-71
2022/01/23 15:01:25;;;;;;;8.45;3.72;;;;;;;;;;5014105;28;20321;-71
2022/01/23 15:03:55;;;;;;;7.10;4.10;;;;;;;;;;5012192;28;20071;-71
2022/01/23 15:06:29;;;;;;;6.65;3.67;;;;;;;;;;5019998;28;20061;-71
2022/01/23 15:09:01;;;;;;;5.78;3.03;;;;;;;;;;5008914;28;20136;-71
2022/01/23 15:11:27;;;;;;;8.43;4.25;;;;;;;;;;5021686;28;20049;-71
2022/01/23 15:13:53;;;;;;;9.48;5.15;;;;;;;;;;4998808;28;20779;-71
2022/01/23 15:16:25;;;;;;;10.38;4.65;;;;;;;;;;5022536;28;20140;-71
2022/01/23 15:18:52;;;;;;;7.45;4.45;;;;;;;;;;5003907;28;20392;-71
2022/01/23 15:21:18;;;;;;;8.82;5.28;;;;;;;;;;5001299;28;20061;-71
2022/01/23 15:23:45;;;;;;;8.02;5.18;;;;;;;;;;5015987;28;20045;-71
2022/01/23 15:26:12;;;;;;;10.50;6.22;;;;;;;;;;5006658;28;20057;-71
2022/01/23 15:28:39;;;;;;;9.48;6.00;;;;;;;;;;5008545;28;20051;-71
2022/01/23 15:31:05;;;;;;;9.60;5.38;;;;;;;;;;5018254;28;20057;-71
2022/01/23 15:33:32;;;;;;;10.60;5.75;;;;;;;;;;5028146;28;20124;-71
2022/01/23 15:35:58;;;;;;;6.53;4.07;;;;;;;;;;5020211;28;20053;-71
2022/01/23 15:38:29;;;;;;;7.07;3.90;;;;;;;;;;5009475;28;20055;-71
2022/01/23 15:40:55;;;;;;;9.25;4.07;;;;;;;;;;5017222;28;20065;-71
2022/01/23 15:43:22;;;;;;;6.55;3.70;;;;;;;;;;5012914;28;20056;-71
2022/01/23 15:45:50;;;;;;;8.52;4.38;;;;;;;;;;5001350;28;20548;-71
2022/01/23 15:48:16;;;;;;;7.10;4.38;;;;;;;;;;4990959;28;20052;-71
2022/01/23 15:50:42;;;;;;;7.00;4.20;;;;;;;;;;5019804;28;20497;-71
2022/01/23 15:53:09;;;;;;;6.40;4.18;;;;;;;;;;5017984;28;20490;-71
2022/01/23 15:55:35;;;;;;;7.82;5.32;;;;;;;;;;5008529;28;20165;-71
2022/01/23 15:58:02;;;;;;;15.57;9.30;;;;;;;;;;5019321;28;20170;-71
2022/01/23 16:00:28;;;;;;;11.00;6.75;;;;;;;;;;5013239;28;20265;-71
2022/01/23 16:02:55;;;;;;;9.40;6.28;;;;;;;;;;5024019;28;20552;-71
2022/01/23 16:05:21;;;;;;;6.88;4.60;;;;;;;;;;5017121;28;21024;-71
2022/01/23 16:07:48;;;;;;;8.85;4.28;;;;;;;;;;5017622;28;20057;-71
2022/01/23 16:10:14;;;;;;;8.30;4.32;;;;;;;;;;5016220;28;20053;-71
2022/01/23 16:12:42;;;;;;;6.88;4.47;;;;;;;;;;5016318;28;20060;-71
2022/01/23 16:15:10;;;;;;;9.40;5.40;;;;;;;;;;5020433;28;20064;-71
2022/01/23 16:17:36;;;;;;;7.20;4.95;;;;;;;;;;4998960;28;20140;-71
2022/01/23 16:20:06;;;;;;;8.95;5.43;;;;;;;;;;5017643;28;20424;-71
2022/01/23 16:22:32;;;;;;;10.38;5.80;;;;;;;;;;5020121;28;20089;-70
2022/01/23 16:24:59;;;;;;;10.57;6.35;;;;;;;;;;5013940;28;20053;-71
2022/01/23 16:27:25;;;;;;;11.40;6.22;;;;;;;;;;5024052;28;20049;-70
2022/01/23 16:30:12;;;;;;;11.82;7.15;;;;;;;;;;5016179;28;20060;-71
2022/01/23 16:32:38;;;;;;;9.85;6.28;;;;;;;;;;5003377;28;20068;-71
2022/01/23 16:35:06;;;;;;;11.13;6.90;;;;;;;;;;5007716;28;20270;-71
2022/01/23 16:37:32;;;;;;;11.85;7.68;;;;;;;;;;5018324;28;20773;-70
2022/01/23 16:39:58;;;;;;;15.15;8.82;;;;;;;;;;5025618;28;20554;-71
2022/01/23 16:42:25;;;;;;;12.88;8.07;;;;;;;;;;5023516;28;20148;-71
2022/01/23 16:44:52;;;;;;;12.70;8.18;;;;;;;;;;4998529;28;20411;-71
2022/01/23 16:47:18;;;;;;;12.60;7.75;;;;;;;;;;4997028;28;20054;-71
2022/01/23 16:49:44;;;;;;;11.43;8.05;;;;;;;;;;5016705;28;20052;-71
2022/01/23 16:52:11;;;;;;;10.00;8.07;;;;;;;;;;4990390;28;20410;-71
2022/01/23 16:54:38;;;;;;;13.55;8.35;;;;;;;;;;5008880;28;20408;-71
2022/01/23 16:57:18;;;;;;;12.85;8.38;;;;;;;;;;5015858;28;20052;-71
2022/01/23 16:59:45;;;;;;;12.55;8.10;;;;;;;;;;5017183;28;20474;-71
2022/01/23 17:02:11;;;;;;;10.70;7.28;;;;;;;;;;5021547;28;20057;-71
2022/01/23 17:04:38;;;;;;;10.40;7.10;;;;;;;;;;5004514;28;20430;-72
2022/01/23 17:07:04;;;;;;;10.25;7.28;;;;;;;;;;5020961;28;20448;-70
2022/01/23 17:09:31;;;;;;;9.48;6.95;;;;;;;;;;4993855;28;20510;-71
2022/01/23 17:12:03;;;;;;;9.02;6.13;;;;;;;;;;5022109;28;20052;-71
2022/01/23 17:14:30;;;;;;;10.63;6.40;;;;;;;;;;5021505;28;20053;-71
2022/01/23 17:16:56;;;;;;;9.25;6.18;;;;;;;;;;5008998;28;20072;-71
2022/01/23 17:19:22;;;;;;;11.70;7.30;;;;;;;;;;5013181;28;20053;-71
2022/01/23 17:21:48;;;;;;;12.80;8.00;;;;;;;;;;5012708;28;20048;-71
2022/01/23 17:24:15;;;;;;;13.52;8.73;;;;;;;;;;5003412;28;20057;-71
2022/01/23 17:26:41;;;;;;;14.77;7.95;;;;;;;;;;4996364;28;20041;-71
2022/01/23 17:29:08;;;;;;;11.23;6.72;;;;;;;;;;5021918;28;20479;-71
2022/01/23 17:31:35;;;;;;;10.05;6.70;;;;;;;;;;5013371;28;20051;-71
2022/01/23 17:34:01;;;;;;;12.07;7.22;;;;;;;;;;5009013;28;20115;-71
2022/01/23 17:36:28;;;;;;;12.90;7.75;;;;;;;;;;5002380;28;20053;-71
2022/01/23 17:38:54;;;;;;;12.25;7.75;;;;;;;;;;5023843;28;20057;-71
2022/01/23 17:41:21;;;;;;;11.05;7.40;;;;;;;;;;5021701;28;20041;-71
2022/01/23 17:43:48;;;;;;;12.32;8.05;;;;;;;;;;4997392;28;20053;-71
2022/01/23 17:46:21;;;;;;;10.35;6.50;;;;;;;;;;5013885;28;20052;-71
2022/01/23 17:48:51;;;;;;;10.90;6.60;;;;;;;;;;5004973;28;20101;-71
2022/01/23 17:51:18;;;;;;;8.52;5.88;;;;;;;;;;5009195;28;20049;-71
2022/01/23 17:53:45;;;;;;;9.82;6.22;;;;;;;;;;5022400;28;20454;-71
2022/01/23 17:56:12;;;;;;;11.15;6.45;;;;;;;;;;5011453;28;20045;-71
2022/01/23 17:58:39;;;;;;;12.40;6.55;;;;;;;;;;5017692;28;20072;-71